sensor_id;sensor_type;location;lat;lon;timestamp;P1;durP1;ratioP1;P2;durP2;ratioP2
80381;SDS011;69692;55.820;37.490;2023-06-26T00:01:19;14.32;;;9.20;;
80381;SDS011;69692;55.820;37.490;2023-06-26T00:03:46;11.30;;;9.40;;
80381;SDS011;69692;55.820;37.490;2023-06-26T00:06:12;13.18;;;9.20;;
80381;SDS011;69692;55.820;37.490;2023-06-26T00:08:38;17.00;;;9.55;;
80381;SDS011;69692;55.820;37.490;2023-06-26T00:11:04;12.60;;;9.30;;
80381;SDS011;69692;55.820;37.490;2023-06-26T00:13:30;14.30;;;8.90;;
80381;SDS011;69692;55.820;37.490;2023-06-26T00:15:56;14.35;;;9.07;;
80381;SDS011;69692;55.820;37.490;2023-06-26T00:18:22;17.27;;;8.48;;
80381;SDS011;69692;55.820;37.490;2023-06-26T00:20:48;15.50;;;10.18;;
80381;SDS011;69692;55.820;37.490;2023-06-26T00:23:16;18.35;;;10.00;;
80381;SDS011;69692;55.820;37.490;2023-06-26T00:25:42;15.50;;;9.73;;
80381;SDS011;69692;55.820;37.490;2023-06-26T00:28:08;14.18;;;9.82;;
80381;SDS011;69692;55.820;37.490;2023-06-26T00:30:37;13.55;;;9.73;;
80381;SDS011;69692;55.820;37.490;2023-06-26T00:33:03;15.73;;;8.80;;
80381;SDS011;69692;55.820;37.490;2023-06-26T00:35:30;15.10;;;8.98;;
80381;SDS011;69692;55.820;37.490;2023-06-26T00:37:56;15.93;;;9.02;;
80381;SDS011;69692;55.820;37.490;2023-06-26T00:40:22;12.80;;;9.00;;
80381;SDS011;69692;55.820;37.490;2023-06-26T00:42:48;15.63;;;9.15;;
80381;SDS011;69692;55.820;37.490;2023-06-26T00:45:14;14.88;;;9.63;;
80381;SDS011;69692;55.820;37.490;2023-06-26T00:47:39;13.55;;;10.18;;
80381;SDS011;69692;55.820;37.490;2023-06-26T00:50:06;15.43;;;9.57;;
80381;SDS011;69692;55.820;37.490;2023-06-26T00:52:32;13.85;;;9.95;;
80381;SDS011;69692;55.820;37.490;2023-06-26T00:54:59;15.48;;;9.55;;
80381;SDS011;69692;55.820;37.490;2023-06-26T00:57:25;16.88;;;10.27;;
80381;SDS011;69692;55.820;37.490;2023-06-26T00:59:52;17.00;;;9.25;;
80381;SDS011;69692;55.820;37.490;2023-06-26T01:02:20;12.27;;;9.02;;
80381;SDS011;69692;55.820;37.490;2023-06-26T01:04:49;15.02;;;9.20;;
80381;SDS011;69692;55.820;37.490;2023-06-26T01:07:16;17.73;;;10.90;;
80381;SDS011;69692;55.820;37.490;2023-06-26T01:09:48;13.60;;;9.45;;
80381;SDS011;69692;55.820;37.490;2023-06-26T01:12:14;15.85;;;10.55;;
80381;SDS011;69692;55.820;37.490;2023-06-26T01:14:41;14.35;;;9.85;;
80381;SDS011;69692;55.820;37.490;2023-06-26T01:17:06;15.65;;;10.30;;
80381;SDS011;69692;55.820;37.490;2023-06-26T01:19:37;13.45;;;9.60;;
80381;SDS011;69692;55.820;37.490;2023-06-26T01:22:24;17.80;;;10.73;;
80381;SDS011;69692;55.820;37.490;2023-06-26T01:28:13;15.50;;;10.45;;
80381;SDS011;69692;55.820;37.490;2023-06-26T01:30:41;15.98;;;11.80;;
80381;SDS011;69692;55.820;37.490;2023-06-26T01:33:10;14.43;;;10.65;;
80381;SDS011;69692;55.820;37.490;2023-06-26T01:35:37;20.35;;;13.10;;
80381;SDS011;69692;55.820;37.490;2023-06-26T01:38:17;17.25;;;12.50;;
80381;SDS011;69692;55.820;37.490;2023-06-26T01:40:46;16.45;;;13.38;;
80381;SDS011;69692;55.820;37.490;2023-06-26T01:43:17;19.83;;;13.55;;
80381;SDS011;69692;55.820;37.490;2023-06-26T01:45:50;22.00;;;13.45;;
80381;SDS011;69692;55.820;37.490;2023-06-26T01:48:20;20.35;;;14.38;;
80381;SDS011;69692;55.820;37.490;2023-06-26T01:50:51;23.75;;;16.27;;
80381;SDS011;69692;55.820;37.490;2023-06-26T01:53:20;22.65;;;14.68;;
80381;SDS011;69692;55.820;37.490;2023-06-26T01:56:00;23.33;;;16.83;;
80381;SDS011;69692;55.820;37.490;2023-06-26T01:58:31;30.58;;;17.52;;
80381;SDS011;69692;55.820;37.490;2023-06-26T02:00:59;31.42;;;19.70;;
80381;SDS011;69692;55.820;37.490;2023-06-26T02:03:25;29.02;;;19.05;;
80381;SDS011;69692;55.820;37.490;2023-06-26T02:05:51;32.53;;;21.20;;
80381;SDS011;69692;55.820;37.490;2023-06-26T02:08:17;35.40;;;22.65;;
80381;SDS011;69692;55.820;37.490;2023-06-26T02:10:48;34.80;;;21.40;;
80381;SDS011;69692;55.820;37.490;2023-06-26T02:13:17;34.85;;;21.83;;
80381;SDS011;69692;55.820;37.490;2023-06-26T02:15:43;35.65;;;21.98;;
80381;SDS011;69692;55.820;37.490;2023-06-26T02:18:09;39.67;;;22.77;;
80381;SDS011;69692;55.820;37.490;2023-06-26T02:20:36;33.25;;;20.92;;
80381;SDS011;69692;55.820;37.490;2023-06-26T02:23:02;38.08;;;21.40;;
80381;SDS011;69692;55.820;37.490;2023-06-26T02:25:28;30.30;;;19.30;;
80381;SDS011;69692;55.820;37.490;2023-06-26T02:27:53;32.67;;;20.00;;
80381;SDS011;69692;55.820;37.490;2023-06-26T02:30:20;32.97;;;20.40;;
80381;SDS011;69692;55.820;37.490;2023-06-26T02:32:46;32.22;;;20.40;;
80381;SDS011;69692;55.820;37.490;2023-06-26T02:35:12;30.00;;;18.98;;
80381;SDS011;69692;55.820;37.490;2023-06-26T02:37:42;33.35;;;20.83;;
80381;SDS011;69692;55.820;37.490;2023-06-26T02:40:08;30.98;;;19.42;;
80381;SDS011;69692;55.820;37.490;2023-06-26T02:42:36;30.13;;;18.33;;
80381;SDS011;69692;55.820;37.490;2023-06-26T02:45:04;36.55;;;20.10;;
80381;SDS011;69692;55.820;37.490;2023-06-26T02:47:32;38.30;;;23.23;;
80381;SDS011;69692;55.820;37.490;2023-06-26T02:49:59;36.67;;;22.00;;
80381;SDS011;69692;55.820;37.490;2023-06-26T02:52:26;40.15;;;22.50;;
80381;SDS011;69692;55.820;37.490;2023-06-26T02:54:54;40.50;;;23.20;;
80381;SDS011;69692;55.820;37.490;2023-06-26T02:57:20;36.55;;;23.13;;
80381;SDS011;69692;55.820;37.490;2023-06-26T02:59:46;34.85;;;21.15;;
80381;SDS011;69692;55.820;37.490;2023-06-26T03:02:12;34.40;;;22.27;;
80381;SDS011;69692;55.820;37.490;2023-06-26T03:04:43;37.42;;;21.70;;
80381;SDS011;69692;55.820;37.490;2023-06-26T03:07:11;33.75;;;21.65;;
80381;SDS011;69692;55.820;37.490;2023-06-26T03:09:39;32.75;;;21.17;;
80381;SDS011;69692;55.820;37.490;2023-06-26T03:12:05;33.92;;;21.33;;
80381;SDS011;69692;55.820;37.490;2023-06-26T03:14:32;31.55;;;20.67;;
80381;SDS011;69692;55.820;37.490;2023-06-26T03:16:58;33.05;;;20.98;;
80381;SDS011;69692;55.820;37.490;2023-06-26T03:19:29;30.95;;;20.27;;
80381;SDS011;69692;55.820;37.490;2023-06-26T03:22:15;31.05;;;21.40;;
80381;SDS011;69692;55.820;37.490;2023-06-26T03:24:41;33.50;;;21.25;;
80381;SDS011;69692;55.820;37.490;2023-06-26T03:27:07;33.05;;;20.67;;
80381;SDS011;69692;55.820;37.490;2023-06-26T03:29:35;27.23;;;18.88;;
80381;SDS011;69692;55.820;37.490;2023-06-26T03:32:01;32.78;;;20.45;;
80381;SDS011;69692;55.820;37.490;2023-06-26T03:34:27;29.80;;;19.35;;
80381;SDS011;69692;55.820;37.490;2023-06-26T03:36:53;33.88;;;21.90;;
80381;SDS011;69692;55.820;37.490;2023-06-26T03:39:19;31.95;;;20.20;;
80381;SDS011;69692;55.820;37.490;2023-06-26T03:41:46;32.05;;;19.70;;
80381;SDS011;69692;55.820;37.490;2023-06-26T03:44:12;30.17;;;19.92;;
80381;SDS011;69692;55.820;37.490;2023-06-26T03:46:44;29.58;;;19.45;;
80381;SDS011;69692;55.820;37.490;2023-06-26T03:49:10;27.63;;;19.15;;
80381;SDS011;69692;55.820;37.490;2023-06-26T03:51:36;26.25;;;18.15;;
80381;SDS011;69692;55.820;37.490;2023-06-26T03:54:02;26.42;;;18.55;;
80381;SDS011;69692;55.820;37.490;2023-06-26T03:56:28;32.15;;;19.17;;
80381;SDS011;69692;55.820;37.490;2023-06-26T03:58:54;29.63;;;18.92;;
80381;SDS011;69692;55.820;37.490;2023-06-26T04:01:20;29.08;;;19.35;;
80381;SDS011;69692;55.820;37.490;2023-06-26T04:03:48;33.28;;;20.05;;
80381;SDS011;69692;55.820;37.490;2023-06-26T04:06:14;31.10;;;20.20;;
80381;SDS011;69692;55.820;37.490;2023-06-26T04:08:40;30.05;;;18.73;;
80381;SDS011;69692;55.820;37.490;2023-06-26T04:11:05;27.65;;;19.40;;
80381;SDS011;69692;55.820;37.490;2023-06-26T04:13:32;27.85;;;18.08;;
80381;SDS011;69692;55.820;37.490;2023-06-26T04:15:57;31.10;;;19.50;;
80381;SDS011;69692;55.820;37.490;2023-06-26T04:18:23;25.65;;;16.65;;
80381;SDS011;69692;55.820;37.490;2023-06-26T04:21:08;26.40;;;17.45;;
80381;SDS011;69692;55.820;37.490;2023-06-26T04:23:37;25.58;;;15.95;;
80381;SDS011;69692;55.820;37.490;2023-06-26T04:26:06;24.80;;;16.55;;
80381;SDS011;69692;55.820;37.490;2023-06-26T04:28:33;25.15;;;15.10;;
80381;SDS011;69692;55.820;37.490;2023-06-26T04:31:00;22.25;;;14.95;;
80381;SDS011;69692;55.820;37.490;2023-06-26T04:33:28;25.50;;;14.82;;
80381;SDS011;69692;55.820;37.490;2023-06-26T04:35:54;21.70;;;13.80;;
80381;SDS011;69692;55.820;37.490;2023-06-26T04:38:20;19.02;;;13.10;;
80381;SDS011;69692;55.820;37.490;2023-06-26T04:40:49;20.00;;;11.60;;
80381;SDS011;69692;55.820;37.490;2023-06-26T04:43:15;17.10;;;11.63;;
80381;SDS011;69692;55.820;37.490;2023-06-26T04:45:41;17.48;;;12.05;;
80381;SDS011;69692;55.820;37.490;2023-06-26T04:48:07;17.88;;;12.32;;
80381;SDS011;69692;55.820;37.490;2023-06-26T04:50:34;18.77;;;12.73;;
80381;SDS011;69692;55.820;37.490;2023-06-26T04:53:00;18.23;;;11.35;;
80381;SDS011;69692;55.820;37.490;2023-06-26T04:55:26;15.50;;;11.02;;
80381;SDS011;69692;55.820;37.490;2023-06-26T04:57:52;19.60;;;11.32;;
80381;SDS011;69692;55.820;37.490;2023-06-26T05:00:18;19.17;;;11.93;;
80381;SDS011;69692;55.820;37.490;2023-06-26T05:02:44;17.75;;;11.10;;
80381;SDS011;69692;55.820;37.490;2023-06-26T05:05:10;11.73;;;8.45;;
80381;SDS011;69692;55.820;37.490;2023-06-26T05:07:37;11.38;;;7.97;;
80381;SDS011;69692;55.820;37.490;2023-06-26T05:10:03;12.55;;;7.80;;
80381;SDS011;69692;55.820;37.490;2023-06-26T05:12:30;12.95;;;8.68;;
80381;SDS011;69692;55.820;37.490;2023-06-26T05:14:55;16.95;;;10.20;;
80381;SDS011;69692;55.820;37.490;2023-06-26T05:17:21;11.60;;;8.93;;
80381;SDS011;69692;55.820;37.490;2023-06-26T05:19:47;13.35;;;9.88;;
80381;SDS011;69692;55.820;37.490;2023-06-26T05:22:13;12.23;;;9.18;;
80381;SDS011;69692;55.820;37.490;2023-06-26T05:24:39;12.07;;;8.43;;
80381;SDS011;69692;55.820;37.490;2023-06-26T05:27:05;9.57;;;7.72;;
80381;SDS011;69692;55.820;37.490;2023-06-26T05:29:32;9.98;;;7.32;;
80381;SDS011;69692;55.820;37.490;2023-06-26T05:31:59;11.90;;;7.15;;
80381;SDS011;69692;55.820;37.490;2023-06-26T05:34:26;14.48;;;7.45;;
80381;SDS011;69692;55.820;37.490;2023-06-26T05:36:58;11.35;;;6.43;;
80381;SDS011;69692;55.820;37.490;2023-06-26T05:39:24;10.38;;;6.97;;
80381;SDS011;69692;55.820;37.490;2023-06-26T05:41:51;8.57;;;6.38;;
80381;SDS011;69692;55.820;37.490;2023-06-26T05:44:17;9.85;;;6.40;;
80381;SDS011;69692;55.820;37.490;2023-06-26T05:46:43;15.73;;;7.20;;
80381;SDS011;69692;55.820;37.490;2023-06-26T05:49:09;9.07;;;6.50;;
80381;SDS011;69692;55.820;37.490;2023-06-26T05:51:35;8.25;;;6.25;;
80381;SDS011;69692;55.820;37.490;2023-06-26T05:54:01;8.80;;;5.85;;
80381;SDS011;69692;55.820;37.490;2023-06-26T05:56:27;9.27;;;6.40;;
80381;SDS011;69692;55.820;37.490;2023-06-26T05:58:54;8.18;;;6.68;;
80381;SDS011;69692;55.820;37.490;2023-06-26T06:01:20;11.43;;;6.45;;
80381;SDS011;69692;55.820;37.490;2023-06-26T06:03:46;8.65;;;6.03;;
80381;SDS011;69692;55.820;37.490;2023-06-26T06:06:12;10.38;;;7.00;;
80381;SDS011;69692;55.820;37.490;2023-06-26T06:08:38;8.65;;;6.25;;
80381;SDS011;69692;55.820;37.490;2023-06-26T06:11:04;8.88;;;6.72;;
80381;SDS011;69692;55.820;37.490;2023-06-26T06:13:30;8.00;;;6.35;;
80381;SDS011;69692;55.820;37.490;2023-06-26T06:15:56;9.98;;;6.28;;
80381;SDS011;69692;55.820;37.490;2023-06-26T06:18:23;8.23;;;5.50;;
80381;SDS011;69692;55.820;37.490;2023-06-26T06:20:48;9.13;;;6.80;;
80381;SDS011;69692;55.820;37.490;2023-06-26T06:23:14;9.35;;;6.15;;
80381;SDS011;69692;55.820;37.490;2023-06-26T06:25:40;11.30;;;6.75;;
80381;SDS011;69692;55.820;37.490;2023-06-26T06:28:06;8.48;;;6.30;;
80381;SDS011;69692;55.820;37.490;2023-06-26T06:30:31;9.32;;;6.72;;
80381;SDS011;69692;55.820;37.490;2023-06-26T06:32:57;8.95;;;6.13;;
80381;SDS011;69692;55.820;37.490;2023-06-26T06:35:23;7.68;;;5.95;;
80381;SDS011;69692;55.820;37.490;2023-06-26T06:37:49;8.77;;;6.20;;
80381;SDS011;69692;55.820;37.490;2023-06-26T06:40:15;8.18;;;6.40;;
80381;SDS011;69692;55.820;37.490;2023-06-26T06:42:41;8.30;;;5.90;;
80381;SDS011;69692;55.820;37.490;2023-06-26T06:45:07;7.10;;;6.03;;
80381;SDS011;69692;55.820;37.490;2023-06-26T06:47:34;7.82;;;5.90;;
80381;SDS011;69692;55.820;37.490;2023-06-26T06:50:01;9.43;;;6.20;;
80381;SDS011;69692;55.820;37.490;2023-06-26T06:52:38;8.10;;;5.53;;
80381;SDS011;69692;55.820;37.490;2023-06-26T06:55:06;7.25;;;5.38;;
80381;SDS011;69692;55.820;37.490;2023-06-26T06:57:38;7.18;;;5.38;;
80381;SDS011;69692;55.820;37.490;2023-06-26T07:02:35;6.72;;;5.07;;
80381;SDS011;69692;55.820;37.490;2023-06-26T07:05:02;7.22;;;5.63;;
80381;SDS011;69692;55.820;37.490;2023-06-26T07:07:32;6.68;;;4.95;;
80381;SDS011;69692;55.820;37.490;2023-06-26T07:10:00;8.70;;;5.85;;
80381;SDS011;69692;55.820;37.490;2023-06-26T07:12:31;7.85;;;5.50;;
80381;SDS011;69692;55.820;37.490;2023-06-26T07:14:57;8.27;;;5.28;;
80381;SDS011;69692;55.820;37.490;2023-06-26T07:17:23;8.52;;;5.25;;
80381;SDS011;69692;55.820;37.490;2023-06-26T07:19:49;8.10;;;5.55;;
80381;SDS011;69692;55.820;37.490;2023-06-26T07:22:15;8.20;;;5.50;;
80381;SDS011;69692;55.820;37.490;2023-06-26T07:24:41;8.07;;;5.28;;
80381;SDS011;69692;55.820;37.490;2023-06-26T07:27:08;9.73;;;5.50;;
80381;SDS011;69692;55.820;37.490;2023-06-26T07:29:33;10.18;;;5.40;;
80381;SDS011;69692;55.820;37.490;2023-06-26T07:31:59;7.90;;;4.97;;
80381;SDS011;69692;55.820;37.490;2023-06-26T07:34:25;7.75;;;5.05;;
80381;SDS011;69692;55.820;37.490;2023-06-26T07:36:51;8.27;;;5.22;;
80381;SDS011;69692;55.820;37.490;2023-06-26T07:39:17;5.90;;;5.07;;
80381;SDS011;69692;55.820;37.490;2023-06-26T07:41:43;6.13;;;4.90;;
80381;SDS011;69692;55.820;37.490;2023-06-26T07:44:08;11.43;;;6.00;;
80381;SDS011;69692;55.820;37.490;2023-06-26T07:46:34;7.95;;;5.35;;
80381;SDS011;69692;55.820;37.490;2023-06-26T07:49:00;10.25;;;5.60;;
80381;SDS011;69692;55.820;37.490;2023-06-26T07:51:26;6.22;;;5.25;;
80381;SDS011;69692;55.820;37.490;2023-06-26T07:53:52;7.80;;;5.85;;
80381;SDS011;69692;55.820;37.490;2023-06-26T07:56:17;6.50;;;5.35;;
80381;SDS011;69692;55.820;37.490;2023-06-26T07:58:43;6.45;;;5.03;;
80381;SDS011;69692;55.820;37.490;2023-06-26T08:01:09;7.22;;;5.57;;
80381;SDS011;69692;55.820;37.490;2023-06-26T08:03:36;7.32;;;5.28;;
80381;SDS011;69692;55.820;37.490;2023-06-26T08:06:02;8.38;;;5.70;;
80381;SDS011;69692;55.820;37.490;2023-06-26T08:08:28;7.60;;;5.28;;
80381;SDS011;69692;55.820;37.490;2023-06-26T08:10:54;7.28;;;5.82;;
80381;SDS011;69692;55.820;37.490;2023-06-26T08:13:20;8.13;;;5.63;;
80381;SDS011;69692;55.820;37.490;2023-06-26T08:15:46;11.85;;;8.15;;
80381;SDS011;69692;55.820;37.490;2023-06-26T08:18:12;6.90;;;5.32;;
80381;SDS011;69692;55.820;37.490;2023-06-26T08:20:38;7.97;;;5.40;;
80381;SDS011;69692;55.820;37.490;2023-06-26T08:23:04;7.18;;;5.20;;
80381;SDS011;69692;55.820;37.490;2023-06-26T08:25:30;7.82;;;5.65;;
80381;SDS011;69692;55.820;37.490;2023-06-26T08:27:56;9.55;;;5.68;;
80381;SDS011;69692;55.820;37.490;2023-06-26T08:30:21;6.85;;;5.45;;
80381;SDS011;69692;55.820;37.490;2023-06-26T08:32:48;8.07;;;5.70;;
80381;SDS011;69692;55.820;37.490;2023-06-26T08:35:14;9.07;;;6.45;;
80381;SDS011;69692;55.820;37.490;2023-06-26T08:37:40;7.95;;;7.15;;
80381;SDS011;69692;55.820;37.490;2023-06-26T08:40:06;7.40;;;5.60;;
80381;SDS011;69692;55.820;37.490;2023-06-26T08:42:33;9.27;;;6.10;;
80381;SDS011;69692;55.820;37.490;2023-06-26T08:44:59;6.97;;;5.22;;
80381;SDS011;69692;55.820;37.490;2023-06-26T08:47:24;8.73;;;6.75;;
80381;SDS011;69692;55.820;37.490;2023-06-26T08:49:58;7.95;;;5.38;;
80381;SDS011;69692;55.820;37.490;2023-06-26T08:55:20;9.65;;;6.88;;
80381;SDS011;69692;55.820;37.490;2023-06-26T08:57:50;8.10;;;6.15;;
80381;SDS011;69692;55.820;37.490;2023-06-26T09:00:17;6.90;;;4.97;;
80381;SDS011;69692;55.820;37.490;2023-06-26T09:02:43;8.77;;;6.28;;
80381;SDS011;69692;55.820;37.490;2023-06-26T09:08:06;9.70;;;8.50;;
80381;SDS011;69692;55.820;37.490;2023-06-26T09:10:32;13.63;;;8.52;;
80381;SDS011;69692;55.820;37.490;2023-06-26T09:12:58;11.57;;;7.40;;
80381;SDS011;69692;55.820;37.490;2023-06-26T09:15:26;8.45;;;6.15;;
80381;SDS011;69692;55.820;37.490;2023-06-26T09:17:57;8.63;;;6.35;;
80381;SDS011;69692;55.820;37.490;2023-06-26T09:20:25;8.07;;;6.47;;
80381;SDS011;69692;55.820;37.490;2023-06-26T09:22:53;11.25;;;7.10;;
80381;SDS011;69692;55.820;37.490;2023-06-26T09:25:19;10.48;;;6.40;;
80381;SDS011;69692;55.820;37.490;2023-06-26T09:27:47;10.27;;;6.32;;
80381;SDS011;69692;55.820;37.490;2023-06-26T09:30:15;9.63;;;5.40;;
80381;SDS011;69692;55.820;37.490;2023-06-26T09:32:42;12.75;;;5.85;;
80381;SDS011;69692;55.820;37.490;2023-06-26T09:35:08;8.73;;;6.20;;
80381;SDS011;69692;55.820;37.490;2023-06-26T09:37:35;10.23;;;5.80;;
80381;SDS011;69692;55.820;37.490;2023-06-26T09:40:01;11.10;;;7.32;;
80381;SDS011;69692;55.820;37.490;2023-06-26T09:42:29;9.27;;;7.05;;
80381;SDS011;69692;55.820;37.490;2023-06-26T09:44:55;9.60;;;6.35;;
80381;SDS011;69692;55.820;37.490;2023-06-26T09:47:22;7.78;;;6.38;;
80381;SDS011;69692;55.820;37.490;2023-06-26T09:49:48;10.32;;;6.03;;
80381;SDS011;69692;55.820;37.490;2023-06-26T09:52:14;9.15;;;6.32;;
80381;SDS011;69692;55.820;37.490;2023-06-26T09:54:45;8.80;;;6.10;;
80381;SDS011;69692;55.820;37.490;2023-06-26T09:57:12;10.18;;;6.30;;
80381;SDS011;69692;55.820;37.490;2023-06-26T09:59:39;8.50;;;5.88;;
80381;SDS011;69692;55.820;37.490;2023-06-26T10:02:08;7.00;;;5.40;;
80381;SDS011;69692;55.820;37.490;2023-06-26T10:04:34;8.27;;;5.85;;
80381;SDS011;69692;55.820;37.490;2023-06-26T10:07:04;7.40;;;5.47;;
80381;SDS011;69692;55.820;37.490;2023-06-26T10:09:31;9.95;;;6.25;;
80381;SDS011;69692;55.820;37.490;2023-06-26T10:14:27;9.20;;;5.63;;
80381;SDS011;69692;55.820;37.490;2023-06-26T10:16:57;10.90;;;7.43;;
80381;SDS011;69692;55.820;37.490;2023-06-26T10:19:24;12.38;;;8.23;;
80381;SDS011;69692;55.820;37.490;2023-06-26T10:21:53;13.32;;;7.80;;
80381;SDS011;69692;55.820;37.490;2023-06-26T10:24:20;13.50;;;8.52;;
80381;SDS011;69692;55.820;37.490;2023-06-26T10:26:49;11.43;;;7.93;;
80381;SDS011;69692;55.820;37.490;2023-06-26T10:29:18;8.23;;;5.95;;
80381;SDS011;69692;55.820;37.490;2023-06-26T10:31:49;11.00;;;6.75;;
80381;SDS011;69692;55.820;37.490;2023-06-26T10:34:17;10.50;;;7.22;;
80381;SDS011;69692;55.820;37.490;2023-06-26T10:36:43;7.28;;;5.35;;
80381;SDS011;69692;55.820;37.490;2023-06-26T10:39:09;8.50;;;6.07;;
80381;SDS011;69692;55.820;37.490;2023-06-26T10:41:39;7.03;;;5.32;;
80381;SDS011;69692;55.820;37.490;2023-06-26T10:44:13;15.23;;;7.82;;
80381;SDS011;69692;55.820;37.490;2023-06-26T10:46:52;11.27;;;7.40;;
80381;SDS011;69692;55.820;37.490;2023-06-26T10:49:20;8.73;;;5.60;;
80381;SDS011;69692;55.820;37.490;2023-06-26T10:51:47;9.68;;;5.95;;
80381;SDS011;69692;55.820;37.490;2023-06-26T10:54:17;8.07;;;5.53;;
80381;SDS011;69692;55.820;37.490;2023-06-26T10:56:48;10.48;;;4.88;;
80381;SDS011;69692;55.820;37.490;2023-06-26T10:59:21;11.60;;;6.38;;
80381;SDS011;69692;55.820;37.490;2023-06-26T11:02:02;8.35;;;5.55;;
80381;SDS011;69692;55.820;37.490;2023-06-26T11:07:14;11.70;;;6.03;;
80381;SDS011;69692;55.820;37.490;2023-06-26T11:09:53;9.00;;;5.85;;
80381;SDS011;69692;55.820;37.490;2023-06-26T11:12:40;11.18;;;5.57;;
80381;SDS011;69692;55.820;37.490;2023-06-26T11:15:11;8.38;;;5.75;;
80381;SDS011;69692;55.820;37.490;2023-06-26T11:17:38;7.50;;;5.38;;
80381;SDS011;69692;55.820;37.490;2023-06-26T11:20:06;9.18;;;5.90;;
80381;SDS011;69692;55.820;37.490;2023-06-26T11:22:34;6.95;;;5.32;;
80381;SDS011;69692;55.820;37.490;2023-06-26T11:25:02;9.60;;;5.80;;
80381;SDS011;69692;55.820;37.490;2023-06-26T11:27:39;7.50;;;5.68;;
80381;SDS011;69692;55.820;37.490;2023-06-26T11:30:09;8.73;;;6.10;;
80381;SDS011;69692;55.820;37.490;2023-06-26T11:32:36;10.40;;;5.82;;
80381;SDS011;69692;55.820;37.490;2023-06-26T11:35:03;10.05;;;5.82;;
80381;SDS011;69692;55.820;37.490;2023-06-26T11:37:32;9.85;;;5.63;;
80381;SDS011;69692;55.820;37.490;2023-06-26T11:39:59;6.18;;;5.38;;
80381;SDS011;69692;55.820;37.490;2023-06-26T11:42:25;8.13;;;5.43;;
80381;SDS011;69692;55.820;37.490;2023-06-26T11:44:51;9.68;;;6.05;;
80381;SDS011;69692;55.820;37.490;2023-06-26T11:47:18;9.88;;;5.38;;
80381;SDS011;69692;55.820;37.490;2023-06-26T11:49:45;8.13;;;6.10;;
80381;SDS011;69692;55.820;37.490;2023-06-26T11:52:13;15.98;;;6.30;;
80381;SDS011;69692;55.820;37.490;2023-06-26T11:54:39;6.82;;;5.43;;
80381;SDS011;69692;55.820;37.490;2023-06-26T11:57:06;7.80;;;5.65;;
80381;SDS011;69692;55.820;37.490;2023-06-26T11:59:35;9.95;;;6.15;;
80381;SDS011;69692;55.820;37.490;2023-06-26T12:02:06;9.05;;;6.03;;
80381;SDS011;69692;55.820;37.490;2023-06-26T12:04:33;8.98;;;5.82;;
80381;SDS011;69692;55.820;37.490;2023-06-26T12:07:01;7.35;;;5.90;;
80381;SDS011;69692;55.820;37.490;2023-06-26T12:09:29;8.82;;;5.70;;
80381;SDS011;69692;55.820;37.490;2023-06-26T12:11:56;12.75;;;5.95;;
80381;SDS011;69692;55.820;37.490;2023-06-26T12:14:23;8.43;;;5.88;;
80381;SDS011;69692;55.820;37.490;2023-06-26T12:16:52;8.98;;;5.75;;
80381;SDS011;69692;55.820;37.490;2023-06-26T12:19:23;6.75;;;5.15;;
80381;SDS011;69692;55.820;37.490;2023-06-26T12:21:50;8.30;;;5.65;;
80381;SDS011;69692;55.820;37.490;2023-06-26T12:24:19;6.63;;;5.07;;
80381;SDS011;69692;55.820;37.490;2023-06-26T12:26:53;9.52;;;5.32;;
80381;SDS011;69692;55.820;37.490;2023-06-26T12:29:28;9.18;;;5.18;;
80381;SDS011;69692;55.820;37.490;2023-06-26T12:31:56;8.00;;;5.65;;
80381;SDS011;69692;55.820;37.490;2023-06-26T12:34:30;6.30;;;5.43;;
80381;SDS011;69692;55.820;37.490;2023-06-26T12:37:01;6.45;;;5.15;;
80381;SDS011;69692;55.820;37.490;2023-06-26T12:39:29;7.18;;;5.15;;
80381;SDS011;69692;55.820;37.490;2023-06-26T12:42:00;7.75;;;4.97;;
80381;SDS011;69692;55.820;37.490;2023-06-26T12:44:27;6.68;;;5.13;;
80381;SDS011;69692;55.820;37.490;2023-06-26T12:46:56;7.88;;;4.78;;
80381;SDS011;69692;55.820;37.490;2023-06-26T12:52:09;7.70;;;5.63;;
80381;SDS011;69692;55.820;37.490;2023-06-26T12:54:40;8.55;;;5.00;;
80381;SDS011;69692;55.820;37.490;2023-06-26T12:57:07;6.18;;;4.88;;
80381;SDS011;69692;55.820;37.490;2023-06-26T12:59:35;9.57;;;5.53;;
80381;SDS011;69692;55.820;37.490;2023-06-26T13:02:02;9.07;;;5.97;;
80381;SDS011;69692;55.820;37.490;2023-06-26T13:04:28;9.18;;;5.40;;
80381;SDS011;69692;55.820;37.490;2023-06-26T13:06:54;6.50;;;5.20;;
80381;SDS011;69692;55.820;37.490;2023-06-26T13:09:20;6.72;;;5.40;;
80381;SDS011;69692;55.820;37.490;2023-06-26T13:11:49;6.90;;;5.45;;
80381;SDS011;69692;55.820;37.490;2023-06-26T13:14:15;9.45;;;5.88;;
80381;SDS011;69692;55.820;37.490;2023-06-26T13:16:41;8.57;;;5.45;;
80381;SDS011;69692;55.820;37.490;2023-06-26T13:19:07;10.93;;;5.32;;
80381;SDS011;69692;55.820;37.490;2023-06-26T13:21:33;8.20;;;5.10;;
80381;SDS011;69692;55.820;37.490;2023-06-26T13:23:59;9.50;;;4.80;;
80381;SDS011;69692;55.820;37.490;2023-06-26T13:26:25;7.03;;;5.10;;
80381;SDS011;69692;55.820;37.490;2023-06-26T13:28:54;7.40;;;4.97;;
80381;SDS011;69692;55.820;37.490;2023-06-26T13:31:21;6.63;;;4.45;;
80381;SDS011;69692;55.820;37.490;2023-06-26T13:33:47;8.77;;;5.45;;
80381;SDS011;69692;55.820;37.490;2023-06-26T13:36:18;6.68;;;4.78;;
80381;SDS011;69692;55.820;37.490;2023-06-26T13:38:44;6.85;;;5.00;;
80381;SDS011;69692;55.820;37.490;2023-06-26T13:41:10;7.90;;;4.93;;
80381;SDS011;69692;55.820;37.490;2023-06-26T13:43:37;7.50;;;5.13;;
80381;SDS011;69692;55.820;37.490;2023-06-26T13:46:03;7.22;;;4.72;;
80381;SDS011;69692;55.820;37.490;2023-06-26T13:48:29;6.40;;;4.57;;
80381;SDS011;69692;55.820;37.490;2023-06-26T13:50:55;6.60;;;4.65;;
80381;SDS011;69692;55.820;37.490;2023-06-26T13:53:22;6.65;;;4.82;;
80381;SDS011;69692;55.820;37.490;2023-06-26T13:55:48;7.32;;;4.75;;
80381;SDS011;69692;55.820;37.490;2023-06-26T13:58:13;8.27;;;4.70;;
80381;SDS011;69692;55.820;37.490;2023-06-26T14:00:39;7.30;;;4.93;;
80381;SDS011;69692;55.820;37.490;2023-06-26T14:03:06;6.50;;;4.78;;
80381;SDS011;69692;55.820;37.490;2023-06-26T14:05:33;6.50;;;4.72;;
80381;SDS011;69692;55.820;37.490;2023-06-26T14:08:01;6.60;;;5.47;;
80381;SDS011;69692;55.820;37.490;2023-06-26T14:10:28;9.35;;;5.22;;
80381;SDS011;69692;55.820;37.490;2023-06-26T14:12:54;8.20;;;5.20;;
80381;SDS011;69692;55.820;37.490;2023-06-26T14:15:20;10.65;;;7.18;;
80381;SDS011;69692;55.820;37.490;2023-06-26T14:17:46;10.00;;;5.47;;
80381;SDS011;69692;55.820;37.490;2023-06-26T14:20:16;9.10;;;5.55;;
80381;SDS011;69692;55.820;37.490;2023-06-26T14:22:42;8.50;;;4.75;;
80381;SDS011;69692;55.820;37.490;2023-06-26T14:25:09;8.77;;;5.50;;
80381;SDS011;69692;55.820;37.490;2023-06-26T14:27:36;16.38;;;5.65;;
80381;SDS011;69692;55.820;37.490;2023-06-26T14:30:03;8.18;;;5.07;;
80381;SDS011;69692;55.820;37.490;2023-06-26T14:32:33;9.32;;;4.57;;
80381;SDS011;69692;55.820;37.490;2023-06-26T14:35:01;10.45;;;5.50;;
80381;SDS011;69692;55.820;37.490;2023-06-26T14:37:35;7.80;;;5.10;;
80381;SDS011;69692;55.820;37.490;2023-06-26T14:40:02;8.15;;;5.30;;
80381;SDS011;69692;55.820;37.490;2023-06-26T14:42:32;6.65;;;4.95;;
80381;SDS011;69692;55.820;37.490;2023-06-26T14:44:59;9.02;;;5.45;;